Time;durP1;ratioP1;P1;durP2;ratioP2;P2;SDS_P1;SDS_P2;PMS_P1;PMS_P2;Temp;Humidity;BMP_temperature;BMP_pressure;BME280_temperature;BME280_humidity;BME280_pressure;Samples;Min_cycle;Max_cycle;Signal;HPM_P1;HPM_P2
2022/03/02 00:01:44;;;;;;;38.65;23.90;;;4.90;99.90;;;;;;6180168;23;20338;-84
2022/03/02 00:04:10;;;;;;;38.58;24.38;;;5.80;99.90;;;;;;6153806;23;20021;-84
2022/03/02 00:06:36;;;;;;;39.15;24.80;;;4.90;99.90;;;;;;6181716;23;20013;-85
2022/03/02 00:09:03;;;;;;;39.83;23.60;;;5.70;99.90;;;;;;6181711;23;20024;-85
2022/03/02 00:11:29;;;;;;;37.85;23.67;;;4.90;99.90;;;;;;6179407;23;20013;-85
2022/03/02 00:13:55;;;;;;;38.38;24.17;;;5.10;99.90;;;;;;6181636;23;20443;-85
2022/03/02 00:16:22;;;;;;;39.75;23.92;;;4.90;99.90;;;;;;6154553;23;20056;-82
2022/03/02 00:18:49;;;;;;;39.15;23.27;;;4.90;99.90;;;;;;6179600;23;20442;-85
2022/03/02 00:21:15;;;;;;;38.53;23.48;;;4.90;99.90;;;;;;6203398;23;20385;-85
2022/03/02 00:23:41;;;;;;;40.53;24.13;;;4.90;99.90;;;;;;6185883;23;20031;-84
2022/03/02 00:26:07;;;;;;;48.30;24.52;;;4.90;99.90;;;;;;6186491;23;20009;-85
2022/03/02 00:28:33;;;;;;;41.05;24.05;;;4.90;99.90;;;;;;6161183;23;20029;-84
2022/03/02 00:30:59;;;;;;;37.63;22.90;;;4.90;99.90;;;;;;6213175;23;20028;-84
2022/03/02 00:33:24;;;;;;;39.20;23.90;;;4.90;99.90;;;;;;6213409;23;20084;-85
2022/03/02 00:35:50;;;;;;;40.00;24.85;;;4.90;99.90;;;;;;6213136;23;20055;-85
2022/03/02 00:38:16;;;;;;;41.38;24.35;;;5.70;99.90;;;;;;6213369;23;20430;-84
2022/03/02 00:40:42;;;;;;;40.17;24.85;;;5.50;99.90;;;;;;6186482;23;20490;-84
2022/03/02 00:43:09;;;;;;;38.90;24.05;;;4.90;99.90;;;;;;6186039;23;20055;-85
2022/03/02 00:45:35;;;;;;;39.53;23.73;;;5.00;99.90;;;;;;6186312;23;20024;-85
2022/03/02 00:48:04;;;;;;;37.38;23.42;;;4.90;99.90;;;;;;6213272;23;20017;-84
2022/03/02 00:50:31;;;;;;;40.53;22.92;;;4.90;99.90;;;;;;6186113;23;20047;-85
2022/03/02 00:52:57;;;;;;;42.20;24.50;;;5.30;99.90;;;;;;6213040;23;20016;-84
2022/03/02 00:55:23;;;;;;;38.65;24.08;;;4.90;99.90;;;;;;6211156;23;20035;-85
2022/03/02 00:57:48;;;;;;;37.45;23.27;;;5.00;99.90;;;;;;6160836;23;20132;-84
2022/03/02 01:00:14;;;;;;;40.88;23.33;;;5.50;99.90;;;;;;6213202;23;20020;-84
2022/03/02 01:02:41;;;;;;;37.28;22.23;;;5.00;99.90;;;;;;6185611;23;20657;-85
2022/03/02 01:05:07;;;;;;;41.05;23.98;;;5.00;99.90;;;;;;6185433;23;20615;-83
2022/03/02 01:07:34;;;;;;;41.75;23.50;;;5.00;99.90;;;;;;6160913;23;20021;-86
2022/03/02 01:10:01;;;;;;;38.17;23.08;;;5.00;99.90;;;;;;6211229;23;20012;-84
2022/03/02 01:12:27;;;;;;;39.40;23.38;;;5.80;99.90;;;;;;6185971;23;20023;-84
2022/03/02 01:14:53;;;;;;;40.00;24.52;;;4.90;99.90;;;;;;6186034;23;20016;-85
2022/03/02 01:17:20;;;;;;;42.15;24.08;;;5.70;99.90;;;;;;6186129;23;20110;-85
2022/03/02 01:19:47;;;;;;;37.13;22.42;;;4.90;99.90;;;;;;6210778;23;20017;-83
2022/03/02 01:22:13;;;;;;;38.83;23.02;;;5.80;99.90;;;;;;6212116;23;20082;-85
2022/03/02 01:24:38;;;;;;;39.45;24.05;;;5.50;99.90;;;;;;6213118;23;20012;-85
2022/03/02 01:27:04;;;;;;;39.80;23.65;;;4.90;99.90;;;;;;6212621;23;20115;-84
2022/03/02 01:29:31;;;;;;;42.08;25.02;;;4.90;99.90;;;;;;6213005;23;20025;-86
2022/03/02 01:31:57;;;;;;;42.22;25.10;;;4.90;99.90;;;;;;6212991;23;20013;-84
2022/03/02 01:34:23;;;;;;;42.42;24.45;;;4.80;99.90;;;;;;6185323;23;20024;-85
2022/03/02 01:36:49;;;;;;;41.20;25.10;;;4.80;99.90;;;;;;6212508;23;20151;-85
2022/03/02 01:39:15;;;;;;;40.45;24.52;;;4.80;99.90;;;;;;6212812;23;20044;-84
2022/03/02 01:41:40;;;;;;;38.88;24.25;;;4.80;99.90;;;;;;6185636;23;20408;-83
2022/03/02 01:44:06;;;;;;;40.58;23.00;;;4.80;99.90;;;;;;6185879;23;20016;-84
2022/03/02 01:46:32;;;;;;;39.13;24.23;;;5.30;99.90;;;;;;6212819;23;20086;-85
2022/03/02 01:48:58;;;;;;;44.58;24.80;;;5.40;99.90;;;;;;6212237;23;20050;-85
2022/03/02 01:51:24;;;;;;;39.33;23.80;;;4.80;99.90;;;;;;6212274;23;20024;-85
2022/03/02 01:53:50;;;;;;;42.70;25.98;;;4.80;99.90;;;;;;6212827;23;20013;-86
2022/03/02 01:56:16;;;;;;;42.75;25.23;;;4.80;99.90;;;;;;6186481;23;20104;-85
2022/03/02 01:58:43;;;;;;;45.42;25.63;;;5.20;99.90;;;;;;6212715;23;20021;-84
2022/03/02 02:01:09;;;;;;;44.10;26.83;;;5.50;99.90;;;;;;6185409;23;20053;-85
2022/03/02 02:03:35;;;;;;;44.17;25.40;;;4.70;99.90;;;;;;6212698;23;20021;-85
2022/03/02 02:06:01;;;;;;;45.20;26.55;;;5.60;99.90;;;;;;6185858;23;20016;-83
2022/03/02 02:08:27;;;;;;;46.95;26.10;;;4.70;99.90;;;;;;6185740;23;20016;-85
2022/03/02 02:10:56;;;;;;;50.58;26.88;;;4.60;99.90;;;;;;6185657;23;20492;-84
2022/03/02 02:13:23;;;;;;;53.38;27.25;;;4.60;99.90;;;;;;6212600;23;20379;-84
2022/03/02 02:15:48;;;;;;;44.50;26.92;;;4.70;99.90;;;;;;6212542;23;20087;-85
2022/03/02 02:18:14;;;;;;;51.20;27.08;;;5.30;99.90;;;;;;6159889;23;20051;-85
2022/03/02 02:20:40;;;;;;;50.03;27.73;;;4.60;99.90;;;;;;6185098;23;20393;-85
2022/03/02 02:23:06;;;;;;;44.28;26.73;;;4.60;99.90;;;;;;6212174;23;20059;-85
2022/03/02 02:25:32;;;;;;;45.83;27.60;;;4.60;99.90;;;;;;6185815;23;20021;-84
2022/03/02 02:27:59;;;;;;;48.00;27.48;;;4.60;99.90;;;;;;6211948;23;20095;-85
2022/03/02 02:30:26;;;;;;;47.00;26.63;;;4.50;99.90;;;;;;6185201;23;20079;-85
2022/03/02 02:32:52;;;;;;;44.55;26.95;;;4.50;99.90;;;;;;6184995;23;20032;-84
2022/03/02 02:35:18;;;;;;;48.15;28.33;;;4.50;99.90;;;;;;6212002;23;20030;-85
2022/03/02 02:37:43;;;;;;;45.72;27.05;;;5.30;99.90;;;;;;6212215;23;20012;-85
2022/03/02 02:40:12;;;;;;;44.95;28.02;;;4.90;99.90;;;;;;6184402;23;20013;-85
2022/03/02 02:42:41;;;;;;;48.92;27.58;;;4.40;99.90;;;;;;6212031;23;20447;-85
2022/03/02 02:45:07;;;;;;;66.28;27.73;;;4.50;99.90;;;;;;6210054;23;20756;-84
2022/03/02 02:47:33;;;;;;;45.50;26.65;;;4.40;99.90;;;;;;6185346;23;20437;-85
2022/03/02 02:49:58;;;;;;;48.50;27.75;;;4.40;99.90;;;;;;6185198;23;20028;-84
2022/03/02 02:52:24;;;;;;;45.88;26.88;;;4.30;99.90;;;;;;6212179;23;20052;-86
2022/03/02 02:54:50;;;;;;;50.28;26.40;;;4.60;99.90;;;;;;6211704;23;20047;-86
2022/03/02 02:57:16;;;;;;;44.42;26.65;;;4.80;99.90;;;;;;6212476;23;20052;-84
2022/03/02 02:59:42;;;;;;;50.42;28.63;;;4.20;99.90;;;;;;6211798;23;20032;-85
2022/03/02 03:02:08;;;;;;;46.15;27.08;;;4.20;99.90;;;;;;6211746;23;20338;-85
2022/03/02 03:04:33;;;;;;;45.47;28.20;;;4.20;99.90;;;;;;6185109;23;20020;-86
2022/03/02 03:06:59;;;;;;;47.45;27.33;;;4.10;99.90;;;;;;6185002;23;20012;-85
2022/03/02 03:09:25;;;;;;;46.10;27.40;;;4.00;99.90;;;;;;6211887;23;20016;-85
2022/03/02 03:11:51;;;;;;;48.83;28.13;;;3.90;99.90;;;;;;6211673;23;20012;-85
2022/03/02 03:14:17;;;;;;;50.33;27.58;;;4.90;99.90;;;;;;6184845;23;20020;-85
2022/03/02 03:16:43;;;;;;;51.38;29.48;;;3.80;99.90;;;;;;6211925;23;20120;-86
2022/03/02 03:19:09;;;;;;;46.33;28.08;;;4.50;99.90;;;;;;6184252;23;20056;-86
2022/03/02 03:21:35;;;;;;;48.17;28.80;;;3.70;99.90;;;;;;6209964;23;20430;-85
2022/03/02 03:24:02;;;;;;;47.70;27.77;;;3.70;99.90;;;;;;6185243;23;20394;-85
2022/03/02 03:26:27;;;;;;;49.90;27.83;;;3.60;99.90;;;;;;6209428;23;20028;-85
2022/03/02 03:28:53;;;;;;;46.88;26.67;;;3.60;99.90;;;;;;6211465;23;20020;-85
2022/03/02 03:31:19;;;;;;;47.35;27.25;;;3.60;99.90;;;;;;6212077;23;20017;-84
2022/03/02 03:33:45;;;;;;;46.47;27.15;;;3.30;99.90;;;;;;6160133;23;20453;-85
2022/03/02 03:36:11;;;;;;;47.90;27.27;;;3.30;99.90;;;;;;6211451;23;20024;-86
2022/03/02 03:38:37;;;;;;;46.53;27.52;;;3.30;99.90;;;;;;6211440;23;20382;-85
2022/03/02 03:41:02;;;;;;;46.20;26.35;;;3.50;99.90;;;;;;6211273;23;20021;-86
2022/03/02 03:43:28;;;;;;;47.72;27.38;;;3.20;99.90;;;;;;6184930;23;20012;-85
2022/03/02 03:45:54;;;;;;;47.38;27.85;;;3.10;99.90;;;;;;6211363;23;20441;-86
2022/03/02 03:48:19;;;;;;;48.05;28.33;;;3.60;99.90;;;;;;6211451;23;20023;-86
2022/03/02 03:50:45;;;;;;;52.72;27.88;;;3.00;99.90;;;;;;6184521;23;20021;-85
2022/03/02 03:53:12;;;;;;;45.65;28.08;;;3.60;99.90;;;;;;6211857;23;20017;-85
2022/03/02 03:55:38;;;;;;;47.80;27.88;;;2.80;99.90;;;;;;6211694;23;20020;-86
2022/03/02 03:58:05;;;;;;;52.38;28.88;;;2.80;99.90;;;;;;6211937;23;20106;-85
2022/03/02 04:00:31;;;;;;;48.30;28.67;;;2.70;99.90;;;;;;6213537;23;20342;-86
2022/03/02 04:02:57;;;;;;;50.33;28.05;;;2.70;99.90;;;;;;6213683;23;20096;-86
2022/03/02 04:05:22;;;;;;;46.63;26.73;;;2.60;99.90;;;;;;6161173;23;20025;-86
2022/03/02 04:07:48;;;;;;;49.50;28.38;;;2.60;99.90;;;;;;6187106;23;20116;-85
2022/03/02 04:10:15;;;;;;;52.03;29.17;;;2.60;99.90;;;;;;6186590;23;20020;-85
2022/03/02 04:12:42;;;;;;;46.75;27.55;;;3.30;99.90;;;;;;6213451;23;20039;-84
2022/03/02 04:15:08;;;;;;;51.92;29.05;;;2.40;99.90;;;;;;6186914;23;20023;-84
2022/03/02 04:17:34;;;;;;;55.85;30.38;;;2.40;99.90;;;;;;6213560;23;20103;-83
2022/03/02 04:19:59;;;;;;;52.20;30.52;;;2.30;99.90;;;;;;6212915;23;20098;-85
2022/03/02 04:22:25;;;;;;;50.38;28.80;;;3.10;99.90;;;;;;6161754;23;20075;-85
2022/03/02 04:24:51;;;;;;;51.22;28.45;;;2.30;99.90;;;;;;6213707;23;20027;-84
2022/03/02 04:27:17;;;;;;;53.28;29.98;;;2.20;99.90;;;;;;6213150;23;20017;-84
2022/03/02 04:29:43;;;;;;;62.10;30.10;;;2.90;99.90;;;;;;6186447;23;20271;-86
2022/03/02 04:32:08;;;;;;;53.08;30.08;;;2.20;99.90;;;;;;6213539;23;20023;-85
2022/03/02 04:34:34;;;;;;;55.83;30.77;;;2.70;99.90;;;;;;6213215;23;20021;-86
2022/03/02 04:37:00;;;;;;;62.28;31.92;;;2.20;99.90;;;;;;6212823;23;20094;-85
2022/03/02 04:39:26;;;;;;;54.22;29.40;;;2.10;99.90;;;;;;6213270;23;20107;-84
2022/03/02 04:41:51;;;;;;;53.67;31.08;;;3.00;99.90;;;;;;6187338;23;20043;-84
2022/03/02 04:44:17;;;;;;;57.90;30.73;;;2.10;99.90;;;;;;6186197;23;20024;-85
2022/03/02 04:46:48;;;;;;;60.42;31.92;;;2.00;99.90;;;;;;6185672;23;20338;-85
2022/03/02 04:49:18;;;;;;;58.45;32.15;;;2.00;99.90;;;;;;6211579;23;20020;-86
2022/03/02 04:51:48;;;;;;;54.80;30.00;;;2.00;99.90;;;;;;6186254;23;20031;-85
2022/03/02 04:57:05;;;;;;;57.70;30.85;;;1.90;99.90;;;;;;6212895;23;20760;-84
2022/03/02 04:59:31;;;;;;;64.18;32.85;;;1.90;99.90;;;;;;6185809;23;20032;-85
2022/03/02 05:01:57;;;;;;;59.42;31.95;;;1.90;99.90;;;;;;6213155;23;20046;-84
2022/03/02 05:04:23;;;;;;;58.67;30.48;;;1.90;99.90;;;;;;6185873;23;20095;-85
2022/03/02 05:06:49;;;;;;;55.30;30.30;;;1.90;99.90;;;;;;6186552;23;20052;-86
2022/03/02 05:09:15;;;;;;;62.47;29.95;;;1.90;99.90;;;;;;6211861;23;20128;-85
2022/03/02 05:11:40;;;;;;;56.50;30.92;;;1.80;99.90;;;;;;6213463;23;20088;-86
2022/03/02 05:14:06;;;;;;;55.92;31.23;;;1.80;99.90;;;;;;6185445;23;20717;-84
2022/03/02 05:16:32;;;;;;;64.10;31.85;;;1.80;99.90;;;;;;6185693;23;20519;-85
2022/03/02 05:18:57;;;;;;;55.15;30.08;;;1.80;99.90;;;;;;6212936;23;20021;-85
2022/03/02 05:21:23;;;;;;;62.38;31.48;;;1.80;99.90;;;;;;6160490;23;20053;-86
2022/03/02 05:23:49;;;;;;;54.40;30.77;;;1.80;99.90;;;;;;6213318;23;20046;-84
2022/03/02 05:26:14;;;;;;;57.95;29.83;;;2.70;99.90;;;;;;6212818;23;20075;-84
2022/03/02 05:28:40;;;;;;;61.08;30.73;;;1.80;99.90;;;;;;6212516;23;20012;-81
2022/03/02 05:31:06;;;;;;;57.25;30.92;;;1.70;99.90;;;;;;6185543;23;20028;-84
2022/03/02 05:33:32;;;;;;;57.80;30.67;;;2.80;99.90;;;;;;6212800;23;20029;-84
2022/03/02 05:35:58;;;;;;;53.75;29.38;;;1.80;99.90;;;;;;6186144;23;20047;-82
2022/03/02 05:38:24;;;;;;;54.55;30.70;;;1.70;99.90;;;;;;6212975;23;20021;-83
2022/03/02 05:40:50;;;;;;;54.45;30.50;;;1.70;99.90;;;;;;6160283;23;20016;-84
2022/03/02 05:43:16;;;;;;;56.58;29.88;;;1.70;99.90;;;;;;6185718;23;20036;-82
2022/03/02 05:45:41;;;;;;;56.70;31.30;;;1.70;99.90;;;;;;6160713;23;20753;-82
2022/03/02 05:48:07;;;;;;;55.88;30.77;;;1.70;99.90;;;;;;6160632;23;20053;-84
2022/03/02 05:50:33;;;;;;;55.17;30.55;;;1.70;99.90;;;;;;6212485;23;20016;-81
2022/03/02 05:52:59;;;;;;;52.53;29.85;;;1.60;99.90;;;;;;6212407;23;20023;-82
2022/03/02 05:55:24;;;;;;;58.42;30.08;;;1.60;99.90;;;;;;6212554;23;20016;-82
2022/03/02 05:57:50;;;;;;;55.20;30.70;;;1.60;99.90;;;;;;6186212;23;20016;-84
2022/03/02 06:00:16;;;;;;;54.97;29.60;;;1.60;99.90;;;;;;6185491;23;20017;-82
2022/03/02 06:02:42;;;;;;;54.10;31.30;;;1.60;99.90;;;;;;6212113;23;20031;-83
2022/03/02 06:05:11;;;;;;;54.17;29.35;;;1.60;99.90;;;;;;6185586;23;20446;-83
2022/03/02 06:07:37;;;;;;;53.38;27.85;;;1.50;99.90;;;;;;6160078;23;20029;-82
2022/03/02 06:10:04;;;;;;;53.78;29.13;;;1.50;99.90;;;;;;6212658;23;20024;-84
2022/03/02 06:12:30;;;;;;;56.72;30.52;;;1.50;99.90;;;;;;6185605;23;20104;-83
2022/03/02 06:14:56;;;;;;;53.15;30.50;;;1.50;99.90;;;;;;6184725;23;20012;-81
2022/03/02 06:17:21;;;;;;;54.25;30.02;;;1.50;99.90;;;;;;6184384;23;20029;-83
2022/03/02 06:19:47;;;;;;;52.90;30.92;;;1.50;99.90;;;;;;6212206;23;20396;-84
2022/03/02 06:22:17;;;;;;;58.03;32.30;;;1.50;99.90;;;;;;6212413;23;20032;-84
2022/03/02 06:24:43;;;;;;;53.95;30.00;;;1.50;99.90;;;;;;6185189;23;20017;-84
2022/03/02 06:27:09;;;;;;;57.35;30.63;;;1.40;99.90;;;;;;6212299;23;20027;-84
2022/03/02 06:29:34;;;;;;;55.90;30.00;;;1.40;99.90;;;;;;6185652;23;20012;-83
2022/03/02 06:32:00;;;;;;;53.33;30.05;;;1.40;99.90;;;;;;6211551;23;20020;-84
2022/03/02 06:34:26;;;;;;;54.90;30.63;;;1.40;99.90;;;;;;6185328;23;20021;-83
2022/03/02 06:36:52;;;;;;;55.72;31.25;;;1.40;99.90;;;;;;6160062;23;20051;-83
2022/03/02 06:39:19;;;;;;;65.15;34.53;;;1.40;99.90;;;;;;6210465;23;20107;-84
2022/03/02 06:41:57;;;;;;;52.95;30.40;;;1.40;99.90;;;;;;6210364;23;20028;-82
2022/03/02 06:44:27;;;;;;;54.63;30.25;;;1.40;99.90;;;;;;6185035;23;20024;-84
2022/03/02 06:47:03;;;;;;;61.88;33.00;;;1.40;99.90;;;;;;6185237;23;20397;-83
2022/03/02 06:49:34;;;;;;;61.78;32.60;;;1.50;99.90;;;;;;6184996;23;20020;-84
2022/03/02 06:52:03;;;;;;;61.97;30.95;;;2.40;99.90;;;;;;6185305;23;20343;-83
2022/03/02 06:54:31;;;;;;;60.03;32.33;;;1.50;99.90;;;;;;6212297;23;20402;-84
2022/03/02 06:57:00;;;;;;;61.10;32.92;;;1.50;99.90;;;;;;6160519;23;20017;-83
2022/03/02 06:59:51;;;;;;;63.67;34.10;;;1.50;99.90;;;;;;6211961;23;20388;-83
2022/03/02 07:02:28;;;;;;;60.80;31.75;;;1.60;99.90;;;;;;6147022;23;20438;-83
2022/03/02 07:04:55;;;;;;;62.65;31.52;;;1.60;99.90;;;;;;6159884;23;20067;-83
2022/03/02 07:07:21;;;;;;;63.05;32.75;;;1.60;99.90;;;;;;6185702;23;20024;-82
2022/03/02 07:09:47;;;;;;;57.30;31.75;;;1.70;99.90;;;;;;6185100;23;20016;-83
2022/03/02 07:12:12;;;;;;;56.25;30.02;;;2.80;99.90;;;;;;6211871;23;20079;-85
2022/03/02 07:14:40;;;;;;;59.08;32.28;;;1.70;99.90;;;;;;6159385;23;20024;-82
2022/03/02 07:17:06;;;;;;;62.30;32.38;;;1.80;99.90;;;;;;6185042;23;20028;-85
2022/03/02 07:19:32;;;;;;;57.25;31.88;;;1.90;99.90;;;;;;6211304;23;20043;-81
2022/03/02 07:22:04;;;;;;;56.92;31.33;;;2.90;99.90;;;;;;6212312;23;20393;-84
2022/03/02 07:24:49;;;;;;;60.67;32.35;;;1.90;99.90;;;;;;6211475;23;20017;-82
2022/03/02 07:27:15;;;;;;;;;;;1.90;99.90;;;;;;6185587;23;20024;-82
2022/03/02 07:29:41;;;;;;;64.03;31.33;;;1.90;99.90;;;;;;6159555;23;19920;-84
2022/03/02 07:32:08;;;;;;;60.17;30.90;;;2.00;99.90;;;;;;6211916;23;20056;-82
2022/03/02 07:34:40;;;;;;;55.45;31.40;;;2.00;99.90;;;;;;6212169;23;20016;-84
2022/03/02 07:37:09;;;;;;;60.25;31.90;;;2.00;99.90;;;;;;6160310;23;20017;-84
2022/03/02 07:39:36;;;;;;;64.10;30.35;;;2.90;99.90;;;;;;6185101;23;20023;-81
2022/03/02 07:42:03;;;;;;;57.78;31.92;;;2.20;99.90;;;;;;6212020;23;20016;-83
2022/03/02 07:44:29;;;;;;;56.25;29.85;;;2.20;99.90;;;;;;6211882;23;20016;-84
2022/03/02 07:46:55;;;;;;;58.83;31.23;;;3.30;99.90;;;;;;6185582;23;20310;-83
2022/03/02 07:49:21;;;;;;;57.53;32.15;;;2.20;99.90;;;;;;6211843;23;20032;-82
2022/03/02 07:51:51;;;;;;;58.88;31.05;;;2.30;99.90;;;;;;6212236;23;20396;-83
2022/03/02 07:54:18;;;;;;;60.38;30.67;;;2.30;99.90;;;;;;6185532;23;20526;-82
2022/03/02 07:56:45;;;;;;;57.08;30.67;;;2.40;99.90;;;;;;6185249;23;20052;-83
2022/03/02 07:59:10;;;;;;;56.60;31.98;;;3.60;99.90;;;;;;6185391;23;20044;-84
2022/03/02 08:01:37;;;;;;;58.00;31.33;;;2.50;99.90;;;;;;6211914;23;20078;-85
2022/03/02 08:04:06;;;;;;;58.70;31.63;;;3.40;99.90;;;;;;6212361;23;20016;-83
2022/03/02 08:06:35;;;;;;;57.03;30.13;;;2.50;99.90;;;;;;6211354;23;20025;-83
2022/03/02 08:09:03;;;;;;;54.05;29.77;;;3.70;99.90;;;;;;6160339;23;20017;-84
2022/03/02 08:11:32;;;;;;;56.42;31.08;;;2.80;99.90;;;;;;6211831;23;20017;-85
2022/03/02 08:13:59;;;;;;;57.13;29.92;;;3.90;99.90;;;;;;6210334;23;20020;-84
2022/03/02 08:16:27;;;;;;;55.28;30.02;;;3.40;99.90;;;;;;6212073;23;20012;-85
2022/03/02 08:18:53;;;;;;;52.08;31.23;;;3.60;99.90;;;;;;6185067;23;20031;-84
2022/03/02 08:21:20;;;;;;;50.83;29.90;;;4.00;99.90;;;;;;6211226;23;20020;-85
2022/03/02 08:23:50;;;;;;;51.20;30.52;;;3.70;99.90;;;;;;6211758;23;20025;-83
2022/03/02 08:26:21;;;;;;;60.40;31.38;;;3.80;99.90;;;;;;6211722;23;20096;-85
2022/03/02 08:28:49;;;;;;;57.53;30.15;;;3.00;99.90;;;;;;6185064;23;20119;-84
2022/03/02 08:31:16;;;;;;;53.97;29.20;;;4.30;99.90;;;;;;6185343;23;20095;-85
2022/03/02 08:33:41;;;;;;;50.85;29.67;;;3.30;99.90;;;;;;6210292;23;20051;-84
2022/03/02 08:36:10;;;;;;;50.63;27.08;;;3.40;99.90;;;;;;6184845;23;20016;-85
2022/03/02 08:38:40;;;;;;;56.40;31.38;;;4.20;99.90;;;;;;6210227;23;20016;-86
2022/03/02 08:41:07;;;;;;;52.08;28.58;;;3.60;99.90;;;;;;6211458;23;20021;-85
2022/03/02 08:43:36;;;;;;;49.70;29.42;;;4.60;99.90;;;;;;6159992;23;20731;-86
2022/03/02 08:46:04;;;;;;;51.28;30.05;;;4.90;99.90;;;;;;6213077;23;20027;-84
2022/03/02 08:48:30;;;;;;;53.55;29.05;;;4.10;99.90;;;;;;6209467;23;20012;-84
2022/03/02 08:50:59;;;;;;;52.10;30.48;;;4.00;99.90;;;;;;6186025;23;20341;-85
2022/03/02 08:53:26;;;;;;;48.03;28.15;;;4.20;99.90;;;;;;6213435;23;20048;-84
2022/03/02 08:55:53;;;;;;;49.85;28.92;;;4.10;99.90;;;;;;6161754;23;20059;-84
2022/03/02 08:58:20;;;;;;;52.83;27.77;;;5.20;99.90;;;;;;6213305;23;20079;-83
2022/03/02 09:00:46;;;;;;;47.95;27.73;;;5.10;99.90;;;;;;6161475;23;20404;-85
2022/03/02 09:03:15;;;;;;;47.50;27.38;;;4.70;99.90;;;;;;6186167;23;20103;-84
2022/03/02 09:05:41;;;;;;;44.72;27.30;;;4.90;99.90;;;;;;6186753;23;20353;-85
2022/03/02 09:08:08;;;;;;;50.47;28.35;;;5.00;99.90;;;;;;6212504;23;20023;-84
2022/03/02 09:10:35;;;;;;;50.85;27.42;;;5.10;99.90;;;;;;6185873;23;20012;-85
2022/03/02 09:13:02;;;;;;;46.67;27.35;;;5.80;99.90;;;;;;6212998;23;20020;-85
2022/03/02 09:15:28;;;;;;;45.15;26.98;;;6.30;99.90;;;;;;6186789;23;20425;-85
2022/03/02 09:17:55;;;;;;;46.22;26.92;;;5.50;99.90;;;;;;6185682;23;20025;-84
2022/03/02 09:20:23;;;;;;;44.72;27.67;;;6.60;99.90;;;;;;6212684;23;20024;-83
2022/03/02 09:22:51;;;;;;;47.30;26.70;;;6.40;99.90;;;;;;6184775;23;20116;-86
2022/03/02 09:25:17;;;;;;;48.25;27.58;;;6.50;99.90;;;;;;6212894;23;20047;-85
2022/03/02 09:27:44;;;;;;;42.95;26.30;;;6.10;99.90;;;;;;6213191;23;20319;-85
2022/03/02 09:30:12;;;;;;;47.60;26.75;;;6.40;99.90;;;;;;6186185;23;20016;-87
2022/03/02 09:32:41;;;;;;;45.90;27.60;;;6.50;99.90;;;;;;6212610;23;20019;-86
2022/03/02 09:35:12;;;;;;;43.28;25.88;;;6.70;99.90;;;;;;6213208;23;20052;-86
2022/03/02 09:37:42;;;;;;;42.67;26.63;;;7.60;99.90;;;;;;6185379;23;20062;-86
2022/03/02 09:40:20;;;;;;;44.15;26.90;;;7.00;99.90;;;;;;6212665;23;20017;-86
2022/03/02 09:42:54;;;;;;;42.63;25.33;;;7.20;99.90;;;;;;6185913;23;20354;-85
2022/03/02 09:45:21;;;;;;;40.35;25.80;;;7.40;99.90;;;;;;6212534;23;20042;-86
2022/03/02 09:47:53;;;;;;;44.97;26.27;;;8.10;99.90;;;;;;6186298;23;20028;-85
2022/03/02 09:50:20;;;;;;;40.95;25.85;;;8.10;99.90;;;;;;6210943;23;20027;-85
2022/03/02 09:52:47;;;;;;;37.17;24.00;;;8.20;99.90;;;;;;6186011;23;20020;-84
2022/03/02 09:55:16;;;;;;;40.28;24.63;;;8.20;99.90;;;;;;6184972;23;20024;-86
2022/03/02 09:57:47;;;;;;;42.08;25.20;;;8.10;99.90;;;;;;6212593;23;20488;-85
2022/03/02 10:00:15;;;;;;;41.13;23.48;;;8.60;99.90;;;;;;6212692;23;20012;-85
2022/03/02 10:02:46;;;;;;;40.15;24.90;;;8.50;99.90;;;;;;6212710;23;20019;-86
2022/03/02 10:05:18;;;;;;;40.72;24.58;;;8.70;99.90;;;;;;6212889;23;20055;-86
2022/03/02 10:07:57;;;;;;;40.72;23.35;;;9.50;99.90;;;;;;6212936;23;20087;-85
2022/03/02 10:10:24;;;;;;;35.85;23.40;;;9.30;99.90;;;;;;6185928;23;20021;-85
2022/03/02 10:13:02;;;;;;;39.25;23.90;;;9.10;99.90;;;;;;6210894;23;20070;-86
2022/03/02 10:15:29;;;;;;;37.42;22.27;;;9.40;99.90;;;;;;6185931;23;20059;-85
2022/03/02 10:17:59;;;;;;;37.90;22.88;;;9.30;99.90;;;;;;6212603;23;20047;-85
2022/03/02 10:20:30;;;;;;;39.65;23.95;;;9.50;99.90;;;;;;6210977;23;20024;-86
2022/03/02 10:23:10;;;;;;;39.85;22.65;;;9.60;99.90;;;;;;6185593;23;20042;-85
2022/03/02 10:25:59;;;;;;;35.10;22.63;;;9.80;99.90;;;;;;6160632;23;20035;-84
2022/03/02 10:28:31;;;;;;;35.97;22.20;;;10.00;99.90;;;;;;6095482;23;20029;-85
2022/03/02 10:31:16;;;;;;;36.10;22.52;;;10.20;99.90;;;;;;6120262;23;20022;-85
2022/03/02 10:34:07;;;;;;;35.95;23.02;;;10.20;99.90;;;;;;6095433;23;20025;-86
2022/03/02 10:36:41;;;;;;;37.00;22.75;;;10.50;99.90;;;;;;6119829;23;20077;-84
2022/03/02 10:39:07;;;;;;;32.90;20.92;;;11.00;99.90;;;;;;6095038;23;20065;-84
2022/03/02 10:41:39;;;;;;;33.13;20.88;;;10.70;99.90;;;;;;6094957;23;20022;-83
2022/03/02 10:44:15;;;;;;;37.28;22.75;;;10.90;99.90;;;;;;6119824;23;20022;-83
2022/03/02 10:46:47;;;;;;;33.38;21.33;;;10.90;99.90;;;;;;6119784;23;20088;-83
2022/03/02 10:49:22;;;;;;;36.55;21.40;;;11.10;99.90;;;;;;6095334;23;20037;-83
2022/03/02 10:51:48;;;;;;;34.63;21.40;;;11.90;99.90;;;;;;6119878;23;20097;-83
2022/03/02 10:54:21;;;;;;;35.00;21.55;;;11.10;99.90;;;;;;6119778;23;20390;-83
2022/03/02 10:56:54;;;;;;;33.95;21.48;;;11.20;99.90;;;;;;6093664;23;20026;-83
2022/03/02 10:59:24;;;;;;;34.20;21.63;;;11.60;99.90;;;;;;6119711;23;20021;-83
2022/03/02 11:01:51;;;;;;;33.58;21.38;;;12.00;99.90;;;;;;6095281;23;20033;-83
2022/03/02 11:04:22;;;;;;;33.20;20.10;;;11.30;99.90;;;;;;6120689;23;20028;-84
2022/03/02 11:06:48;;;;;;;32.63;21.50;;;11.70;99.90;;;;;;6212144;23;20090;-83
2022/03/02 11:09:18;;;;;;;34.90;20.45;;;11.70;99.90;;;;;;6185591;23;20087;-83
2022/03/02 11:11:44;;;;;;;34.28;21.23;;;11.70;99.90;;;;;;6211332;23;20028;-83
2022/03/02 11:14:10;;;;;;;35.53;20.52;;;11.90;99.90;;;;;;6211774;23;20027;-84
2022/03/02 11:16:36;;;;;;;32.25;20.25;;;11.90;99.90;;;;;;6184519;23;20017;-83
2022/03/02 11:19:13;;;;;;;26.08;18.20;;;12.10;99.90;;;;;;6212026;23;20358;-83
2022/03/02 11:21:41;;;;;;;31.67;19.73;;;12.30;99.90;;;;;;6211591;23;20066;-83
2022/03/02 11:24:09;;;;;;;30.48;19.85;;;12.10;99.90;;;;;;6185013;23;20039;-83
2022/03/02 11:26:37;;;;;;;28.67;19.50;;;12.30;99.90;;;;;;6211339;23;20505;-83
2022/03/02 11:29:27;;;;;;;29.70;18.90;;;12.50;99.90;;;;;;6211874;23;20366;-85
2022/03/02 11:31:57;;;;;;;29.58;17.80;;;12.40;99.90;;;;;;6185288;23;20020;-85
2022/03/02 11:34:23;;;;;;;34.03;18.98;;;13.10;99.90;;;;;;6211938;23;20021;-85
2022/03/02 11:36:55;;;;;;;29.83;18.13;;;12.50;99.90;;;;;;6184425;23;20096;-84
2022/03/02 11:39:23;;;;;;;33.83;18.67;;;12.50;99.90;;;;;;6211911;23;20071;-83
2022/03/02 11:42:03;;;;;;;27.75;18.13;;;12.90;99.90;;;;;;6211695;23;20017;-85
2022/03/02 11:44:33;;;;;;;28.42;18.23;;;12.70;99.90;;;;;;6184821;23;20342;-85
2022/03/02 11:47:04;;;;;;;26.25;17.15;;;12.70;99.90;;;;;;6212098;23;20096;-84
2022/03/02 11:49:44;;;;;;;26.33;17.02;;;13.20;99.90;;;;;;6211658;23;20022;-85
2022/03/02 11:52:14;;;;;;;27.23;16.42;;;12.90;99.90;;;;;;6211368;23;20328;-83
2022/03/02 11:55:07;;;;;;;27.55;17.13;;;13.00;99.90;;;;;;6211893;23;20315;-84
2022/03/02 11:57:42;;;;;;;25.98;16.73;;;13.00;99.90;;;;;;6211389;23;20124;-84
2022/03/02 12:00:14;;;;;;;27.67;17.27;;;13.60;99.90;;;;;;6184509;23;20028;-84
2022/03/02 12:02:52;;;;;;;27.92;17.70;;;13.20;99.90;;;;;;6211847;23;20351;-84
2022/03/02 12:05:22;;;;;;;24.33;16.25;;;13.20;99.90;;;;;;6185135;23;20104;-83
2022/03/02 12:07:50;;;;;;;24.33;17.10;;;13.60;99.90;;;;;;6184532;23;20044;-85
2022/03/02 12:10:25;;;;;;;27.70;16.33;;;13.40;99.90;;;;;;6211643;23;20433;-84
2022/03/02 12:12:53;;;;;;;28.05;17.90;;;13.50;99.90;;;;;;6211415;23;20079;-82
2022/03/02 12:15:21;;;;;;;28.58;17.88;;;13.60;99.40;;;;;;6211459;23;20342;-82
2022/03/02 12:17:49;;;;;;;27.08;17.55;;;13.40;99.90;;;;;;6211722;23;20587;-82
2022/03/02 12:20:20;;;;;;;25.73;17.42;;;13.40;99.90;;;;;;6213058;23;20025;-83
2022/03/02 12:22:53;;;;;;;29.35;17.50;;;13.40;99.90;;;;;;6213734;23;20346;-85
2022/03/02 12:25:22;;;;;;;27.27;18.30;;;13.60;99.90;;;;;;6213367;23;20446;-85
2022/03/02 12:28:00;;;;;;;26.40;16.88;;;13.80;99.90;;;;;;6212998;23;20438;-83
2022/03/02 12:30:35;;;;;;;27.75;19.08;;;13.80;99.90;;;;;;6213422;23;20342;-83
2022/03/02 12:33:02;;;;;;;29.08;18.35;;;14.00;99.90;;;;;;6186891;23;20020;-84
2022/03/02 12:35:28;;;;;;;28.10;18.27;;;14.20;99.90;;;;;;6161330;23;20078;-82
2022/03/02 12:37:56;;;;;;;28.75;18.52;;;14.10;99.90;;;;;;6212640;23;20062;-83
2022/03/02 12:40:28;;;;;;;25.00;17.25;;;14.70;99.70;;;;;;6186315;23;20052;-83
2022/03/02 12:42:55;;;;;;;25.02;17.42;;;14.20;99.90;;;;;;6211648;23;20345;-83